createdAt,value
2019-05-09T00:01:43.961Z,49.86
2019-05-09T00:04:14.038Z,50.07
2019-05-09T00:06:43.585Z,50.28
2019-05-09T00:09:13.910Z,50.65
2019-05-09T00:11:44.035Z,50.98
2019-05-09T00:14:13.757Z,51.03
2019-05-09T00:16:43.915Z,51.10
2019-05-09T00:19:13.681Z,51.27
2019-05-09T00:21:47.725Z,51.19
2019-05-09T00:24:17.127Z,51.25
2019-05-09T00:26:46.364Z,51.25
2019-05-09T00:29:33.484Z,51.33
2019-05-09T00:32:23.973Z,51.45
2019-05-09T00:34:54.946Z,51.37
2019-05-09T00:37:25.955Z,51.30
2019-05-09T00:39:55.311Z,51.36
2019-05-09T00:42:24.590Z,51.48
2019-05-09T00:44:55.511Z,51.59
2019-05-09T00:47:26.527Z,51.62
2019-05-09T00:49:55.855Z,51.81
2019-05-09T00:52:25.202Z,51.83
2019-05-09T00:54:54.572Z,52.01
2019-05-09T00:57:38.336Z,52.09
2019-05-09T01:00:14.532Z,52.07
2019-05-09T01:02:43.510Z,52.11
2019-05-09T01:05:13.840Z,52.24
2019-05-09T01:07:43.202Z,52.46
2019-05-09T01:10:14.478Z,52.52
2019-05-09T01:12:43.879Z,52.58
2019-05-09T01:15:13.858Z,52.61
2019-05-09T01:17:44.165Z,52.73
2019-05-09T01:20:14.770Z,52.89
2019-05-09T01:22:44.199Z,52.93
2019-05-09T01:25:13.764Z,53.04
2019-05-09T01:27:43.285Z,53.01
2019-05-09T01:30:13.562Z,53.08
2019-05-09T01:32:47.720Z,53.18
2019-05-09T01:35:17.043Z,53.20
2019-05-09T01:37:46.412Z,53.20
2019-05-09T01:40:16.783Z,53.15
2019-05-09T01:42:46.108Z,53.19
2019-05-09T01:45:15.523Z,53.15
2019-05-09T01:47:44.826Z,53.36
2019-05-09T01:50:14.518Z,53.41
2019-05-09T01:52:43.968Z,53.21
2019-05-09T01:55:14.195Z,53.12
2019-05-09T01:57:47.728Z,53.15
2019-05-09T02:00:15.252Z,53.02
2019-05-09T02:02:44.617Z,53.07
2019-05-09T02:05:14.208Z,52.95
2019-05-09T02:07:43.905Z,53.16
2019-05-09T02:10:14.008Z,53.00
2019-05-09T02:12:43.461Z,52.94
2019-05-09T02:15:14.445Z,53.04
2019-05-09T02:17:58.298Z,53.08
2019-05-09T02:20:16.572Z,53.11
2019-05-09T02:22:45.874Z,53.30
2019-05-09T02:25:15.327Z,53.28
2019-05-09T02:27:44.785Z,53.16
2019-05-09T02:30:15.471Z,53.31
2019-05-09T02:32:45.416Z,53.46
2019-05-09T02:35:15.082Z,53.40
2019-05-09T02:37:44.453Z,53.49
2019-05-09T02:40:14.320Z,53.72
2019-05-09T02:42:43.619Z,53.61
2019-05-09T02:45:13.490Z,53.53
2019-05-09T02:47:42.810Z,53.67
2019-05-09T02:50:12.865Z,53.66
2019-05-09T02:52:42.232Z,53.67
2019-05-09T02:55:11.920Z,53.63
2019-05-09T02:57:41.293Z,53.63
2019-05-09T03:00:21.906Z,53.62
2019-05-09T03:02:59.211Z,53.63
2019-05-09T03:05:29.748Z,53.72
2019-05-09T03:07:58.531Z,53.78
2019-05-09T03:10:29.319Z,53.86
2019-05-09T03:12:59.606Z,53.82
2019-05-09T03:15:29.569Z,54.04
2019-05-09T03:17:59.920Z,54.04
2019-05-09T03:20:49.222Z,53.90
2019-05-09T03:23:19.485Z,53.96
2019-05-09T03:25:49.105Z,54.25
2019-05-09T03:28:23.159Z,54.41
2019-05-09T03:30:59.268Z,54.45
2019-05-09T03:33:30.816Z,54.53
2019-05-09T03:35:59.248Z,54.74
2019-05-09T03:38:28.678Z,54.73
2019-05-09T03:40:58.151Z,54.61
2019-05-09T03:43:27.666Z,54.78
2019-05-09T03:45:58.823Z,54.96
2019-05-09T03:48:32.256Z,55.15
2019-05-09T03:51:01.560Z,54.92
2019-05-09T03:53:30.828Z,55.08
2019-05-09T03:56:01.887Z,55.11
2019-05-09T03:58:31.249Z,55.06
2019-05-09T04:01:00.545Z,55.03
2019-05-09T04:03:29.875Z,54.94
2019-05-09T04:06:02.876Z,55.05
2019-05-09T04:08:30.233Z,55.02
2019-05-09T04:10:59.646Z,55.02
2019-05-09T04:13:33.518Z,55.30
2019-05-09T04:16:02.873Z,55.21
2019-05-09T04:18:32.279Z,55.25
2019-05-09T04:21:01.838Z,55.19
2019-05-09T04:23:31.336Z,55.01
2019-05-09T04:26:02.751Z,54.90
2019-05-09T04:28:32.115Z,55.03
2019-05-09T04:31:01.421Z,54.87
2019-05-09T04:33:30.736Z,54.96
2019-05-09T04:36:00.035Z,54.54
2019-05-09T04:38:29.475Z,54.65
2019-05-09T04:40:58.890Z,54.34
2019-05-09T04:43:35.607Z,54.55
2019-05-09T04:46:01.945Z,54.37
2019-05-09T04:48:37.357Z,54.67
2019-05-09T04:51:07.812Z,54.92
2019-05-09T04:53:39.773Z,54.62
2019-05-09T04:56:27.884Z,54.23
2019-05-09T04:58:58.352Z,53.64
2019-05-09T05:01:47.730Z,53.39
2019-05-09T05:04:20.106Z,52.87
2019-05-09T05:06:49.454Z,52.79
2019-05-09T05:09:20.896Z,52.98
2019-05-09T05:11:49.880Z,53.38
2019-05-09T05:14:22.179Z,53.96
2019-05-09T05:16:58.225Z,54.27
2019-05-09T05:19:30.954Z,54.00
2019-05-09T05:21:59.454Z,54.06
2019-05-09T05:24:30.382Z,54.69
2019-05-09T05:26:59.808Z,55.28
2019-05-09T05:29:29.100Z,55.96
2019-05-09T05:32:00.000Z,56.35
2019-05-09T05:34:37.796Z,55.89
2019-05-09T05:37:07.613Z,55.97
2019-05-09T05:39:37.633Z,56.38
2019-05-09T05:42:08.329Z,56.35
2019-05-09T05:44:38.676Z,56.77
2019-05-09T05:47:09.868Z,57.21
2019-05-09T05:49:39.346Z,57.97
2019-05-09T05:52:08.712Z,56.74
2019-05-09T05:54:38.071Z,56.83
2019-05-09T05:57:08.490Z,55.88
2019-05-09T05:59:40.783Z,57.88
2019-05-09T06:02:09.027Z,59.22
2019-05-09T06:04:38.442Z,58.93
2019-05-09T06:07:08.211Z,59.06
2019-05-09T06:09:38.090Z,60.74
2019-05-09T06:12:08.457Z,60.77
2019-05-09T06:14:38.066Z,60.01
2019-05-09T06:17:08.101Z,60.39
2019-05-09T06:19:38.177Z,61.46
2019-05-09T06:22:08.429Z,60.19
2019-05-09T06:24:38.837Z,61.89
2019-05-09T06:27:10.488Z,62.79
2019-05-09T06:29:40.025Z,62.72
2019-05-09T06:32:09.393Z,62.83
2019-05-09T06:34:41.997Z,63.48
2019-05-09T06:37:09.929Z,63.44
2019-05-09T06:39:39.297Z,63.85
2019-05-09T06:42:09.325Z,63.42
2019-05-09T06:44:47.977Z,62.77
2019-05-09T06:47:19.038Z,62.68
2019-05-09T06:49:50.218Z,61.09
2019-05-09T06:52:28.043Z,61.98
2019-05-09T06:54:58.240Z,62.27
2019-05-09T06:57:28.242Z,62.29
2019-05-09T06:59:58.095Z,62.16
2019-05-09T07:02:32.064Z,61.75
2019-05-09T07:05:03.031Z,62.20
2019-05-09T07:07:37.421Z,62.07
2019-05-09T07:10:08.299Z,62.18
2019-05-09T07:12:38.019Z,62.44
2019-05-09T07:15:08.765Z,62.26
2019-05-09T07:17:38.798Z,62.37
2019-05-09T07:20:08.827Z,62.73
2019-05-09T07:22:39.898Z,62.38
2019-05-09T07:25:11.522Z,61.67
2019-05-09T07:27:42.835Z,61.87
2019-05-09T07:30:24.297Z,61.23
2019-05-09T07:33:13.666Z,60.53
2019-05-09T07:35:42.998Z,60.70
2019-05-09T07:38:12.439Z,60.74
2019-05-09T07:40:41.672Z,61.11
2019-05-09T07:43:10.994Z,61.18
2019-05-09T07:45:42.979Z,60.02
2019-05-09T07:48:12.296Z,59.64
2019-05-09T07:50:41.621Z,57.36
2019-05-09T07:53:11.036Z,56.80
2019-05-09T07:55:40.457Z,55.98
2019-05-09T07:58:09.812Z,55.11
2019-05-09T08:00:39.328Z,54.03
2019-05-09T08:03:12.949Z,53.12
2019-05-09T08:05:39.873Z,51.79
2019-05-09T08:08:12.153Z,51.42
2019-05-09T08:10:41.547Z,50.71
2019-05-09T08:13:12.123Z,49.82
2019-05-09T08:15:41.796Z,49.09
2019-05-09T08:18:11.178Z,48.21
2019-05-09T08:20:44.931Z,47.41
2019-05-09T08:23:14.441Z,46.36
2019-05-09T08:25:43.815Z,46.15
2019-05-09T08:28:13.220Z,45.36
2019-05-09T08:30:43.158Z,45.88
2019-05-09T08:33:12.465Z,45.46
2019-05-09T08:35:41.865Z,45.73
2019-05-09T08:38:11.240Z,44.33
2019-05-09T08:40:40.670Z,44.73
2019-05-09T08:43:10.009Z,43.89
2019-05-09T08:45:39.308Z,43.59
2019-05-09T08:48:09.389Z,43.84
2019-05-09T08:50:40.823Z,44.34
2019-05-09T08:53:11.833Z,43.83
2019-05-09T08:55:41.134Z,44.00
2019-05-09T08:58:10.417Z,44.38
2019-05-09T09:00:39.932Z,44.84
2019-05-09T09:03:09.349Z,45.33
2019-05-09T09:05:43.249Z,45.27
2019-05-09T09:08:12.122Z,45.74
2019-05-09T09:10:41.497Z,45.60
2019-05-09T09:13:10.912Z,45.46
2019-05-09T09:16:05.702Z,45.36
2019-05-09T09:18:11.519Z,45.62
2019-05-09T09:20:40.912Z,45.35
2019-05-09T09:23:10.314Z,45.18
2019-05-09T09:25:39.747Z,45.24
2019-05-09T09:28:09.230Z,44.39
2019-05-09T09:30:39.052Z,44.13
2019-05-09T09:33:11.567Z,44.04
2019-05-09T09:35:39.601Z,44.07
2019-05-09T09:38:09.573Z,45.07
2019-05-09T09:40:38.921Z,45.93
2019-05-09T09:43:09.441Z,45.65
2019-05-09T09:45:39.092Z,45.37
2019-05-09T09:48:09.214Z,45.31
2019-05-09T09:50:38.748Z,44.28
2019-05-09T09:53:09.120Z,43.94
2019-05-09T09:55:38.864Z,44.11
2019-05-09T09:58:08.543Z,43.94
2019-05-09T10:00:44.765Z,44.13
2019-05-09T10:03:14.523Z,44.28
2019-05-09T10:05:43.932Z,45.05
2019-05-09T10:08:14.079Z,45.56
2019-05-09T10:10:43.644Z,45.70
2019-05-09T10:13:13.063Z,46.12
2019-05-09T10:15:44.098Z,46.33
2019-05-09T10:18:20.016Z,46.69
2019-05-09T10:20:51.066Z,47.25
2019-05-09T10:23:21.638Z,47.47
2019-05-09T10:25:52.881Z,48.12
2019-05-09T10:28:22.251Z,48.11
2019-05-09T10:30:51.616Z,48.01
2019-05-09T10:33:21.064Z,48.41
2019-05-09T10:35:50.519Z,48.25
2019-05-09T10:38:19.978Z,48.38
2019-05-09T10:40:53.022Z,48.71
2019-05-09T10:43:38.662Z,49.24
2019-05-09T10:46:19.398Z,49.12
2019-05-09T10:48:50.649Z,48.82
2019-05-09T10:51:20.137Z,49.64
2019-05-09T10:53:49.580Z,50.35
2019-05-09T10:56:19.189Z,50.46
2019-05-09T10:58:48.576Z,51.23
2019-05-09T11:01:18.691Z,52.59
2019-05-09T11:03:48.706Z,53.52
2019-05-09T11:06:18.663Z,52.12
2019-05-09T11:08:49.074Z,52.92
2019-05-09T11:11:18.680Z,53.03
2019-05-09T11:13:48.626Z,52.63
2019-05-09T11:16:18.493Z,52.49
2019-05-09T11:18:48.622Z,52.37
2019-05-09T11:21:19.190Z,51.03
2019-05-09T11:23:49.253Z,50.21
2019-05-09T11:26:18.794Z,49.96
2019-05-09T11:28:48.162Z,51.05
2019-05-09T11:31:18.668Z,50.59
2019-05-09T11:33:48.717Z,51.18
2019-05-09T11:36:21.154Z,50.96
2019-05-09T11:38:49.908Z,51.23
2019-05-09T11:41:19.773Z,51.54
2019-05-09T11:43:49.349Z,52.81
2019-05-09T11:46:18.854Z,53.80
2019-05-09T11:48:48.064Z,53.77
2019-05-09T11:51:22.010Z,53.66
2019-05-09T11:53:48.951Z,54.17
2019-05-09T11:56:18.454Z,53.93
2019-05-09T11:58:48.495Z,55.22
2019-05-09T12:01:19.046Z,55.99
2019-05-09T12:03:52.120Z,56.31
2019-05-09T12:06:20.571Z,56.80
2019-05-09T12:08:50.422Z,57.19
2019-05-09T12:11:19.839Z,57.27
2019-05-09T12:13:49.206Z,57.85
2019-05-09T12:16:18.943Z,58.50
2019-05-09T12:18:49.101Z,59.63
2019-05-09T12:21:19.505Z,59.49
2019-05-09T12:23:49.898Z,59.80
2019-05-09T12:26:19.437Z,60.62
2019-05-09T12:28:48.989Z,60.22
2019-05-09T12:31:18.579Z,59.75
2019-05-09T12:33:48.616Z,60.26
2019-05-09T12:36:19.405Z,61.41
2019-05-09T12:38:50.238Z,61.85
2019-05-09T12:41:20.622Z,62.26
2019-05-09T12:43:49.934Z,61.51
2019-05-09T12:46:19.353Z,61.40
2019-05-09T12:48:48.727Z,61.08
2019-05-09T12:51:18.567Z,60.90
2019-05-09T12:53:48.718Z,61.82
2019-05-09T12:56:18.890Z,63.81
2019-05-09T12:58:48.411Z,62.65
2019-05-09T13:01:18.723Z,63.58
2019-05-09T13:03:48.730Z,64.23
2019-05-09T13:06:20.240Z,64.68
2019-05-09T13:08:49.432Z,64.82
2019-05-09T13:11:20.149Z,65.33
2019-05-09T13:13:49.962Z,66.05
2019-05-09T13:16:21.000Z,66.81
2019-05-09T13:19:03.957Z,66.81
2019-05-09T13:21:33.500Z,67.42
2019-05-09T13:24:03.015Z,67.29
2019-05-09T13:26:32.722Z,68.16
2019-05-09T13:29:02.117Z,68.36
2019-05-09T13:31:34.572Z,69.15
2019-05-09T13:34:02.687Z,69.73
2019-05-09T13:36:32.065Z,70.21
2019-05-09T13:39:05.021Z,69.88
2019-05-09T13:41:32.403Z,71.34
2019-05-09T13:44:05.251Z,70.34
2019-05-09T13:46:32.732Z,71.11
2019-05-09T13:49:11.600Z,70.74
2019-05-09T13:51:33.247Z,71.54
2019-05-09T13:54:02.577Z,70.27
2019-05-09T13:56:32.080Z,69.63
2019-05-09T13:59:01.381Z,70.48
2019-05-09T14:01:30.791Z,69.85
2019-05-09T14:04:00.439Z,69.16
2019-05-09T14:06:29.908Z,69.87
2019-05-09T14:08:59.942Z,69.39
2019-05-09T14:11:29.493Z,69.08
2019-05-09T14:13:58.862Z,69.62
2019-05-09T14:16:28.825Z,68.42
2019-05-09T14:19:00.650Z,68.25
2019-05-09T14:21:29.993Z,68.98
2019-05-09T14:24:10.706Z,69.51
2019-05-09T14:26:30.712Z,69.49
2019-05-09T14:29:00.097Z,69.39
2019-05-09T14:31:32.548Z,71.39
2019-05-09T14:34:01.226Z,70.30
2019-05-09T14:36:30.591Z,70.39
2019-05-09T14:39:00.057Z,71.60
2019-05-09T14:41:29.429Z,69.89
2019-05-09T14:43:59.903Z,71.41
2019-05-09T14:46:29.584Z,71.97
2019-05-09T14:48:59.412Z,72.34
2019-05-09T14:51:29.793Z,73.46
2019-05-09T14:53:59.719Z,73.09
2019-05-09T14:56:29.137Z,73.15
2019-05-09T14:58:58.602Z,73.07
2019-05-09T15:01:28.982Z,74.64
2019-05-09T15:03:58.906Z,75.12
2019-05-09T15:06:28.498Z,76.07
2019-05-09T15:08:58.329Z,75.50
2019-05-09T15:11:28.437Z,77.13
2019-05-09T15:13:58.646Z,77.00
2019-05-09T15:16:28.450Z,77.72
2019-05-09T15:18:58.561Z,77.79
2019-05-09T15:21:28.165Z,78.19
2019-05-09T15:23:59.082Z,79.80
2019-05-09T15:26:29.213Z,79.08
2019-05-09T15:28:58.749Z,79.96
2019-05-09T15:31:28.832Z,80.08
2019-05-09T15:33:58.400Z,78.86
2019-05-09T15:36:27.768Z,78.80
2019-05-09T15:38:59.122Z,79.37
2019-05-09T15:41:28.399Z,79.98
2019-05-09T15:43:58.033Z,80.65
2019-05-09T15:46:29.159Z,79.67
2019-05-09T15:48:58.532Z,79.81
2019-05-09T15:51:28.074Z,80.02
2019-05-09T15:53:57.887Z,79.94
2019-05-09T15:56:28.823Z,80.28
2019-05-09T15:58:58.265Z,80.08
2019-05-09T16:01:27.974Z,79.90
2019-05-09T16:03:57.532Z,80.47
2019-05-09T16:06:32.581Z,80.60
2019-05-09T16:08:58.646Z,80.31
2019-05-09T16:11:28.673Z,80.25
2019-05-09T16:13:58.164Z,81.67
2019-05-09T16:16:28.611Z,80.86
2019-05-09T16:18:58.428Z,80.90
2019-05-09T16:21:28.030Z,81.37
2019-05-09T16:23:59.311Z,81.66
2019-05-09T16:26:29.151Z,81.64
2019-05-09T16:28:58.646Z,82.00
2019-05-09T16:31:28.254Z,81.97
2019-05-09T16:33:58.808Z,82.31
2019-05-09T16:36:28.385Z,82.48
2019-05-09T16:38:58.390Z,82.57
2019-05-09T16:41:28.165Z,82.85
2019-05-09T16:43:58.331Z,82.96
2019-05-09T16:46:28.610Z,83.49
2019-05-09T16:48:58.308Z,83.50
2019-05-09T16:51:28.582Z,83.67
2019-05-09T16:53:58.552Z,84.19
2019-05-09T16:56:28.855Z,84.26
2019-05-09T16:58:58.543Z,84.86
2019-05-09T17:01:28.488Z,85.24
2019-05-09T17:03:58.278Z,85.31
2019-05-09T17:06:27.653Z,85.63
2019-05-09T17:08:58.358Z,84.89
2019-05-09T17:11:28.109Z,84.55
2019-05-09T17:13:58.354Z,84.44
2019-05-09T17:16:28.433Z,84.31
2019-05-09T17:18:58.329Z,84.32
2019-05-09T17:21:29.440Z,84.16
2019-05-09T17:24:00.315Z,84.26
2019-05-09T17:26:29.841Z,84.59
2019-05-09T17:29:00.294Z,84.25
2019-05-09T17:31:29.900Z,84.53
2019-05-09T17:33:59.274Z,84.75
2019-05-09T17:36:28.749Z,83.93
2019-05-09T17:38:58.516Z,84.01
2019-05-09T17:41:31.962Z,84.12
2019-05-09T17:44:01.304Z,84.37
2019-05-09T17:46:30.671Z,83.59
2019-05-09T17:49:00.142Z,83.40
2019-05-09T17:51:33.933Z,83.60
2019-05-09T17:54:03.876Z,83.73
2019-05-09T17:56:34.754Z,83.93
2019-05-09T17:59:08.757Z,84.02
2019-05-09T18:01:38.260Z,84.45
2019-05-09T18:04:09.194Z,84.42
2019-05-09T18:06:38.808Z,84.39
2019-05-09T18:09:08.939Z,84.43
2019-05-09T18:11:38.463Z,84.26
2019-05-09T18:14:08.348Z,84.64
2019-05-09T18:16:39.036Z,85.19
2019-05-09T18:19:09.655Z,84.78
2019-05-09T18:21:50.231Z,84.96
2019-05-09T18:24:10.206Z,84.62
2019-05-09T18:26:39.755Z,84.33
2019-05-09T18:29:09.160Z,84.34
2019-05-09T18:31:52.548Z,84.52
2019-05-09T18:34:22.116Z,84.37
2019-05-09T18:36:51.563Z,84.26
2019-05-09T18:39:23.075Z,84.06
2019-05-09T18:41:52.783Z,84.69
2019-05-09T18:44:22.159Z,84.67
2019-05-09T18:46:51.669Z,85.01
2019-05-09T18:49:21.156Z,85.10
2019-05-09T18:52:02.659Z,84.98
2019-05-09T18:54:22.004Z,84.65
2019-05-09T18:56:57.318Z,84.40
2019-05-09T18:59:32.226Z,84.65
2019-05-09T19:02:05.998Z,84.92
2019-05-09T19:04:35.797Z,84.84
2019-05-09T19:07:21.370Z,85.24
2019-05-09T19:09:37.452Z,85.21
2019-05-09T19:12:07.312Z,85.23
2019-05-09T19:14:37.160Z,84.91
2019-05-09T19:17:10.029Z,85.06
2019-05-09T19:19:41.458Z,84.79
2019-05-09T19:22:22.101Z,84.57
2019-05-09T19:24:42.654Z,84.62
2019-05-09T19:27:12.149Z,84.62
2019-05-09T19:29:41.669Z,84.26
2019-05-09T19:32:11.104Z,84.25
2019-05-09T19:34:40.668Z,84.36
2019-05-09T19:37:10.971Z,84.55
2019-05-09T19:39:40.593Z,84.58
2019-05-09T19:42:10.309Z,84.50
2019-05-09T19:44:39.911Z,84.50
2019-05-09T19:47:09.724Z,84.70
2019-05-09T19:49:39.115Z,84.76
2019-05-09T19:52:08.625Z,84.83
2019-05-09T19:54:38.183Z,84.86
2019-05-09T19:57:08.436Z,84.98
2019-05-09T19:59:37.920Z,85.15
2019-05-09T20:02:07.706Z,85.26
2019-05-09T20:04:37.336Z,85.58
2019-05-09T20:07:07.203Z,85.47
2019-05-09T20:09:55.956Z,85.55
2019-05-09T20:12:33.561Z,85.59
2019-05-09T20:15:03.732Z,85.57
2019-05-09T20:17:33.542Z,85.75
2019-05-09T20:20:06.420Z,85.74
2019-05-09T20:22:36.072Z,85.84
2019-05-09T20:25:07.314Z,85.86
2019-05-09T20:27:36.822Z,85.67
2019-05-09T20:30:08.165Z,85.68
2019-05-09T20:32:38.078Z,85.72
2019-05-09T20:35:08.268Z,85.84
2019-05-09T20:37:38.639Z,85.90
2019-05-09T20:40:08.872Z,85.89
2019-05-09T20:42:39.058Z,85.92
2019-05-09T20:45:09.057Z,85.65
2019-05-09T20:47:38.911Z,85.84
2019-05-09T20:50:09.066Z,85.78
2019-05-09T20:52:38.718Z,85.63
2019-05-09T20:55:10.273Z,85.52
2019-05-09T20:57:40.221Z,85.42
2019-05-09T21:00:10.727Z,85.38
2019-05-09T21:02:40.684Z,85.64
2019-05-09T21:05:11.002Z,85.49
2019-05-09T21:07:40.784Z,85.77
2019-05-09T21:10:10.681Z,85.76
2019-05-09T21:12:40.474Z,85.91
2019-05-09T21:15:10.640Z,86.05
2019-05-09T21:17:40.282Z,86.08
2019-05-09T21:20:10.227Z,85.83
2019-05-09T21:22:40.413Z,86.02
2019-05-09T21:25:10.258Z,86.23
2019-05-09T21:27:39.867Z,86.54
2019-05-09T21:30:10.027Z,86.59
2019-05-09T21:32:39.498Z,86.82
2019-05-09T21:35:09.121Z,86.88
2019-05-09T21:37:38.544Z,87.10
2019-05-09T21:40:09.025Z,87.36
2019-05-09T21:42:38.491Z,87.54
2019-05-09T21:45:08.550Z,87.55
2019-05-09T21:47:37.993Z,87.86
2019-05-09T21:50:08.644Z,88.25
2019-05-09T21:52:38.021Z,88.52
2019-05-09T21:55:08.037Z,88.59
2019-05-09T21:57:37.415Z,88.74
2019-05-09T22:00:15.414Z,88.95
2019-05-09T22:02:45.027Z,89.07
2019-05-09T22:05:14.444Z,89.11
2019-05-09T22:07:43.864Z,89.08
2019-05-09T22:10:14.140Z,89.20
2019-05-09T22:12:43.681Z,89.25
2019-05-09T22:15:15.835Z,89.42
2019-05-09T22:17:45.342Z,89.59
2019-05-09T22:20:16.309Z,89.75
2019-05-09T22:22:46.104Z,90.05
2019-05-09T22:25:16.081Z,90.24
2019-05-09T22:27:45.934Z,90.42
2019-05-09T22:30:16.312Z,90.46
2019-05-09T22:32:45.679Z,90.49
2019-05-09T22:35:15.648Z,90.31
2019-05-09T22:37:45.152Z,90.28
2019-05-09T22:40:15.055Z,90.03
2019-05-09T22:42:46.229Z,90.22
2019-05-09T22:45:15.956Z,90.40
2019-05-09T22:47:45.321Z,90.50
2019-05-09T22:50:14.777Z,90.34
2019-05-09T22:52:44.375Z,89.86
2019-05-09T22:55:14.690Z,90.16
2019-05-09T22:57:44.150Z,90.48
2019-05-09T23:00:15.673Z,90.89
2019-05-09T23:02:45.070Z,91.22
2019-05-09T23:05:14.465Z,90.93
2019-05-09T23:07:43.877Z,90.98
2019-05-09T23:10:13.254Z,91.13
2019-05-09T23:12:42.719Z,91.21
2019-05-09T23:15:14.254Z,91.49
2019-05-09T23:17:45.436Z,91.51
2019-05-09T23:20:22.792Z,91.59
2019-05-09T23:22:52.165Z,91.51
2019-05-09T23:25:21.780Z,91.45
2019-05-09T23:27:51.214Z,91.39
2019-05-09T23:30:20.629Z,91.30
2019-05-09T23:32:50.006Z,90.85
2019-05-09T23:35:19.452Z,90.78
2019-05-09T23:37:48.811Z,90.74
2019-05-09T23:40:18.356Z,90.84
2019-05-09T23:42:47.803Z,91.02
2019-05-09T23:45:17.284Z,91.16
2019-05-09T23:47:46.603Z,89.48
2019-05-09T23:50:16.026Z,89.27
2019-05-09T23:52:45.408Z,88.69
2019-05-09T23:55:32.746Z,88.88
2019-05-09T23:58:20.298Z,89.09
